createdAt,value
2018-05-14T00:02:00.523Z,64.50
2018-05-14T00:04:27.988Z,56.23
2018-05-14T00:06:55.393Z,63.10
2018-05-14T00:09:22.809Z,63.80
2018-05-14T00:11:50.251Z,79.27
2018-05-14T00:14:17.659Z,57.50
2018-05-14T00:16:45.448Z,57.47
2018-05-14T00:19:12.852Z,58.20
2018-05-14T00:21:40.260Z,75.77
2018-05-14T00:24:07.684Z,78.43
2018-05-14T00:26:35.140Z,60.50
2018-05-14T00:29:02.581Z,61.87
2018-05-14T00:31:29.992Z,58.17
2018-05-14T00:33:57.409Z,61.77
2018-05-14T00:36:24.832Z,58.47
2018-05-14T00:38:52.237Z,59.40
2018-05-14T00:41:19.668Z,64.13
2018-05-14T00:43:47.076Z,57.77
2018-05-14T00:46:14.517Z,59.37
2018-05-14T00:48:41.932Z,55.63
2018-05-14T00:51:09.621Z,54.40
2018-05-14T00:53:37.037Z,55.20
2018-05-14T00:56:04.450Z,68.97
2018-05-14T00:58:31.879Z,58.73
2018-05-14T01:00:59.283Z,54.37
2018-05-14T01:03:26.715Z,59.87
2018-05-14T01:05:54.120Z,59.23
2018-05-14T01:08:21.545Z,56.43
2018-05-14T01:10:48.963Z,51.67
2018-05-14T01:13:16.369Z,53.13
2018-05-14T01:15:43.939Z,49.13
2018-05-14T01:18:11.348Z,50.63
2018-05-14T01:20:38.744Z,47.83
2018-05-14T01:23:06.168Z,63.77
2018-05-14T01:25:33.593Z,54.97
2018-05-14T01:28:01.088Z,57.60
2018-05-14T01:30:28.415Z,54.10
2018-05-14T01:32:55.850Z,61.83
2018-05-14T01:35:23.263Z,58.73
2018-05-14T01:37:50.692Z,58.70
2018-05-14T01:40:18.115Z,57.47
2018-05-14T01:42:45.552Z,58.80
2018-05-14T01:45:12.973Z,60.53
2018-05-14T01:47:40.408Z,63.77
2018-05-14T01:50:07.823Z,53.93
2018-05-14T01:52:35.540Z,53.47
2018-05-14T01:55:02.951Z,51.90
2018-05-14T01:57:30.356Z,54.97
2018-05-14T01:59:57.781Z,51.43
2018-05-14T02:02:25.210Z,59.53
2018-05-14T02:04:52.627Z,49.47
2018-05-14T02:07:20.032Z,44.37
2018-05-14T02:09:47.740Z,51.57
2018-05-14T02:12:15.152Z,61.67
2018-05-14T02:14:42.553Z,46.20
2018-05-14T02:17:09.976Z,47.43
2018-05-14T02:19:37.397Z,48.70
2018-05-14T02:22:04.806Z,46.20
2018-05-14T02:24:32.275Z,45.53
2018-05-14T02:26:59.652Z,47.10
2018-05-14T02:29:27.187Z,46.40
2018-05-14T02:31:54.585Z,47.07
2018-05-14T02:34:21.993Z,47.27
2018-05-14T02:36:49.486Z,41.37
2018-05-14T02:39:16.909Z,46.90
2018-05-14T02:41:44.324Z,44.87
2018-05-14T02:44:11.751Z,43.00
2018-05-14T02:46:39.163Z,41.73
2018-05-14T02:49:06.576Z,55.80
2018-05-14T02:51:34.316Z,54.07
2018-05-14T02:54:01.727Z,46.93
2018-05-14T02:56:29.152Z,42.30
2018-05-14T02:58:56.589Z,47.97
2018-05-14T03:01:24.009Z,46.13
2018-05-14T03:03:51.641Z,43.53
2018-05-14T03:06:19.067Z,50.80
2018-05-14T03:08:46.480Z,43.90
2018-05-14T03:11:13.920Z,42.30
2018-05-14T03:13:41.325Z,44.13
2018-05-14T03:16:08.746Z,44.33
2018-05-14T03:18:36.161Z,45.03
2018-05-14T03:21:03.583Z,48.37
2018-05-14T03:23:30.980Z,41.60
2018-05-14T03:25:58.407Z,50.03
2018-05-14T03:28:25.823Z,47.80
2018-05-14T03:30:53.242Z,40.53
2018-05-14T03:33:20.643Z,41.80
2018-05-14T03:35:48.077Z,44.03
2018-05-14T03:38:15.495Z,42.37
2018-05-14T03:40:42.919Z,44.23
2018-05-14T03:43:10.344Z,39.73
2018-05-14T03:45:37.825Z,37.87
2018-05-14T03:48:05.241Z,51.50
2018-05-14T03:50:32.653Z,44.63
2018-05-14T03:53:00.060Z,49.30
2018-05-14T03:55:27.628Z,42.80
2018-05-14T03:57:55.043Z,42.77
2018-05-14T04:00:34.232Z,45.00
2018-05-14T04:03:13.354Z,40.43
2018-05-14T04:05:52.552Z,38.27
2018-05-14T04:08:20.037Z,40.53
2018-05-14T04:10:47.381Z,37.97
2018-05-14T04:13:14.788Z,39.30
2018-05-14T04:15:42.193Z,38.67
2018-05-14T04:18:09.625Z,39.90
2018-05-14T04:20:37.032Z,37.50
2018-05-14T04:23:04.448Z,37.17
2018-05-14T04:25:31.879Z,37.17
2018-05-14T04:27:59.284Z,38.43
2018-05-14T04:30:26.704Z,41.87
2018-05-14T04:32:54.121Z,39.43
2018-05-14T04:35:21.549Z,35.47
2018-05-14T04:37:48.963Z,43.07
2018-05-14T04:40:16.383Z,38.07
2018-05-14T04:42:43.792Z,38.37
2018-05-14T04:45:12.723Z,35.17
2018-05-14T04:47:40.147Z,34.97
2018-05-14T04:50:07.556Z,38.20
2018-05-14T04:52:34.979Z,36.63
2018-05-14T04:55:02.403Z,35.53
2018-05-14T04:57:29.815Z,36.13
2018-05-14T04:59:57.240Z,32.07
2018-05-14T05:02:24.643Z,35.37
2018-05-14T05:04:52.082Z,36.47
2018-05-14T05:07:19.510Z,34.73
2018-05-14T05:09:46.910Z,36.23
2018-05-14T05:12:14.367Z,34.17
2018-05-14T05:14:41.768Z,33.00
2018-05-14T05:17:09.284Z,33.87
2018-05-14T05:19:36.601Z,31.30
2018-05-14T05:22:04.019Z,30.27
2018-05-14T05:24:31.875Z,32.03
2018-05-14T05:26:59.276Z,28.60
2018-05-14T05:29:26.831Z,30.87
2018-05-14T05:31:54.244Z,28.27
2018-05-14T05:34:21.648Z,27.73
2018-05-14T05:36:49.064Z,28.37
2018-05-14T05:39:16.627Z,24.45
2018-05-14T05:41:44.034Z,26.35
2018-05-14T05:44:11.444Z,25.55
2018-05-14T05:46:38.892Z,24.52
2018-05-14T05:49:06.315Z,24.83
2018-05-14T05:51:33.733Z,27.10
2018-05-14T05:54:01.156Z,24.58
2018-05-14T05:56:28.584Z,24.33
2018-05-14T05:58:56.056Z,25.00
2018-05-14T06:01:23.499Z,23.73
2018-05-14T06:03:50.904Z,26.30
2018-05-14T06:06:18.328Z,24.92
2018-05-14T06:08:45.892Z,24.27
2018-05-14T06:11:13.320Z,26.33
2018-05-14T06:13:40.736Z,23.48
2018-05-14T06:16:08.163Z,21.90
2018-05-14T06:18:35.600Z,21.83
2018-05-14T06:21:03.016Z,18.95
2018-05-14T06:23:30.432Z,22.05
2018-05-14T06:25:57.869Z,24.73
2018-05-14T06:28:25.300Z,21.83
2018-05-14T06:30:52.730Z,23.17
2018-05-14T06:33:20.141Z,23.12
2018-05-14T06:35:47.584Z,22.08
2018-05-14T06:38:15.144Z,21.98
2018-05-14T06:40:42.564Z,25.02
2018-05-14T06:43:09.980Z,24.05
2018-05-14T06:45:37.616Z,23.52
2018-05-14T06:48:04.877Z,23.12
2018-05-14T06:50:32.303Z,21.08
2018-05-14T06:52:59.744Z,20.92
2018-05-14T06:55:27.172Z,19.75
2018-05-14T06:57:54.592Z,18.40
2018-05-14T07:00:22.018Z,20.60
2018-05-14T07:02:49.424Z,21.48
2018-05-14T07:05:17.159Z,21.80
2018-05-14T07:07:44.574Z,21.48
2018-05-14T07:10:11.981Z,23.00
2018-05-14T07:12:39.399Z,23.38
2018-05-14T07:15:06.808Z,19.92
2018-05-14T07:17:34.242Z,21.65
2018-05-14T07:20:01.640Z,21.23
2018-05-14T07:22:29.080Z,17.90
2018-05-14T07:24:56.491Z,17.83
2018-05-14T07:27:24.224Z,20.20
2018-05-14T07:29:51.641Z,17.17
2018-05-14T07:32:19.054Z,16.85
2018-05-14T07:34:46.483Z,17.15
2018-05-14T07:37:13.903Z,17.42
2018-05-14T07:39:41.372Z,15.40
2018-05-14T07:42:08.788Z,13.70
2018-05-14T07:44:36.197Z,17.05
2018-05-14T07:47:03.604Z,16.48
2018-05-14T07:49:31.549Z,13.43
2018-05-14T07:51:58.947Z,16.48
2018-05-14T07:54:26.416Z,15.38
2018-05-14T07:56:53.989Z,17.73
2018-05-14T07:59:21.401Z,18.33
2018-05-14T08:01:48.808Z,17.67
2018-05-14T08:04:16.228Z,18.35
2018-05-14T08:06:43.651Z,20.12
2018-05-14T08:09:11.079Z,20.50
2018-05-14T08:11:38.553Z,17.40
2018-05-14T08:14:05.908Z,19.27
2018-05-14T08:16:33.895Z,16.52
2018-05-14T08:19:01.312Z,15.15
2018-05-14T08:21:28.871Z,17.58
2018-05-14T08:23:56.285Z,16.90
2018-05-14T08:26:23.688Z,17.05
2018-05-14T08:28:51.111Z,15.68
2018-05-14T08:31:18.554Z,14.80
2018-05-14T08:33:45.960Z,13.73
2018-05-14T08:36:13.387Z,13.25
2018-05-14T08:38:40.802Z,13.23
2018-05-14T08:41:08.229Z,12.93
2018-05-14T08:43:35.651Z,11.90
2018-05-14T08:46:03.064Z,12.40
2018-05-14T08:48:30.493Z,11.10
2018-05-14T08:50:57.900Z,11.88
2018-05-14T08:53:25.455Z,11.07
2018-05-14T08:55:52.735Z,11.95
2018-05-14T08:58:20.143Z,12.73
2018-05-14T09:00:47.615Z,13.50
2018-05-14T09:03:14.989Z,11.98
2018-05-14T09:05:42.411Z,10.10
2018-05-14T09:08:09.840Z,10.93
2018-05-14T09:10:37.250Z,12.63
2018-05-14T09:13:04.683Z,11.73
2018-05-14T09:15:32.093Z,11.50
2018-05-14T09:17:59.505Z,10.95
2018-05-14T09:20:27.228Z,9.32
2018-05-14T09:22:54.637Z,9.27
2018-05-14T09:25:22.045Z,10.25
2018-05-14T09:27:49.490Z,9.02
2018-05-14T09:30:16.904Z,8.75
2018-05-14T09:32:44.332Z,8.68
2018-05-14T09:35:11.840Z,7.87
2018-05-14T09:37:39.247Z,7.22
2018-05-14T09:40:06.651Z,7.37
2018-05-14T09:42:34.371Z,6.90
2018-05-14T09:45:01.781Z,7.15
2018-05-14T09:47:29.196Z,7.00
2018-05-14T09:49:56.865Z,6.12
2018-05-14T09:52:24.280Z,6.37
2018-05-14T09:54:51.700Z,6.32
2018-05-14T09:57:19.837Z,6.95
2018-05-14T09:59:47.267Z,6.20
2018-05-14T10:02:14.769Z,6.60
2018-05-14T10:04:42.198Z,5.80
2018-05-14T10:07:09.618Z,5.85
2018-05-14T10:09:37.021Z,5.90
2018-05-14T10:12:04.431Z,5.90
2018-05-14T10:14:31.868Z,5.65
2018-05-14T10:16:59.456Z,5.72
2018-05-14T10:19:26.935Z,5.43
2018-05-14T10:21:54.424Z,6.10
2018-05-14T10:24:21.865Z,5.93
2018-05-14T10:26:49.343Z,5.07
2018-05-14T10:29:16.772Z,5.03
2018-05-14T10:31:44.229Z,5.40
2018-05-14T10:34:11.625Z,5.20
2018-05-14T10:36:39.093Z,5.68
2018-05-14T10:39:07.339Z,6.03
2018-05-14T10:41:34.805Z,5.57
2018-05-14T10:44:02.216Z,5.07
2018-05-14T10:46:29.617Z,5.00
2018-05-14T10:48:57.044Z,5.45
2018-05-14T10:51:24.451Z,4.90
2018-05-14T10:53:51.880Z,4.40
2018-05-14T10:56:19.275Z,4.70
2018-05-14T10:58:46.887Z,5.90
2018-05-14T11:01:14.209Z,4.07
2018-05-14T11:03:41.619Z,3.97
2018-05-14T11:06:09.024Z,4.32
2018-05-14T11:08:36.423Z,3.70
2018-05-14T11:11:03.833Z,3.90
2018-05-14T11:13:31.240Z,4.25
2018-05-14T11:15:58.635Z,4.90
2018-05-14T11:18:26.055Z,4.03
2018-05-14T11:20:53.461Z,4.18
2018-05-14T11:23:20.879Z,4.07
2018-05-14T11:25:48.275Z,4.07
2018-05-14T11:28:15.850Z,4.22
2018-05-14T11:30:43.257Z,4.57
2018-05-14T11:33:10.656Z,4.82
2018-05-14T11:35:38.063Z,5.30
2018-05-14T11:38:07.938Z,4.82
2018-05-14T11:40:36.116Z,4.70
2018-05-14T11:43:03.532Z,4.78
2018-05-14T11:45:31.468Z,4.53
2018-05-14T11:47:58.883Z,4.05
2018-05-14T11:50:26.327Z,4.05
2018-05-14T11:52:53.743Z,4.32
2018-05-14T11:55:21.144Z,4.60
2018-05-14T11:57:48.580Z,5.00
2018-05-14T12:00:16.008Z,5.25
2018-05-14T12:02:43.479Z,4.60
2018-05-14T12:05:10.836Z,4.32
2018-05-14T12:07:38.255Z,4.57
2018-05-14T12:10:05.729Z,4.47
2018-05-14T12:12:33.464Z,4.35
2018-05-14T12:15:00.868Z,4.20
2018-05-14T12:17:28.308Z,4.47
2018-05-14T12:19:56.016Z,5.90
2018-05-14T12:22:24.360Z,4.70
2018-05-14T12:24:51.766Z,6.03
2018-05-14T12:27:19.199Z,5.05
2018-05-14T12:29:46.598Z,5.18
2018-05-14T12:32:14.028Z,5.00
2018-05-14T12:34:41.446Z,4.47
2018-05-14T12:37:08.860Z,4.78
2018-05-14T12:39:36.256Z,4.43
2018-05-14T12:42:03.673Z,4.65
2018-05-14T12:44:31.091Z,4.97
2018-05-14T12:46:58.493Z,5.18
2018-05-14T12:49:25.900Z,4.78
2018-05-14T12:51:53.360Z,4.60
2018-05-14T12:54:20.727Z,5.28
2018-05-14T12:56:48.131Z,4.47
2018-05-14T12:59:15.532Z,4.22
2018-05-14T13:01:42.953Z,4.60
2018-05-14T13:04:10.356Z,5.20
2018-05-14T13:06:37.781Z,4.62
2018-05-14T13:09:05.208Z,4.47
2018-05-14T13:11:32.642Z,5.57
2018-05-14T13:14:00.043Z,4.55
2018-05-14T13:16:27.447Z,4.55
2018-05-14T13:18:54.992Z,4.90
2018-05-14T13:21:22.409Z,5.18
2018-05-14T13:23:49.809Z,5.00
2018-05-14T13:26:17.282Z,4.82
2018-05-14T13:28:44.648Z,4.93
2018-05-14T13:31:12.224Z,4.40
2018-05-14T13:33:39.623Z,4.62
2018-05-14T13:36:07.037Z,4.43
2018-05-14T13:38:34.455Z,5.18
2018-05-14T13:41:01.862Z,4.95
2018-05-14T13:43:29.279Z,4.55
2018-05-14T13:45:56.709Z,5.45
2018-05-14T13:48:24.118Z,5.40
2018-05-14T13:50:51.586Z,5.40
2018-05-14T13:53:18.936Z,5.18
2018-05-14T13:55:46.350Z,5.10
2018-05-14T13:58:13.760Z,4.85
2018-05-14T14:00:41.169Z,4.65
2018-05-14T14:03:08.600Z,5.62
2018-05-14T14:05:36.001Z,5.37
2018-05-14T14:08:03.424Z,5.32
2018-05-14T14:10:30.827Z,5.35
2018-05-14T14:12:58.236Z,5.62
2018-05-14T14:15:25.661Z,4.80
2018-05-14T14:17:53.059Z,4.85
2018-05-14T14:20:20.472Z,4.15
2018-05-14T14:22:47.893Z,5.10
2018-05-14T14:25:15.307Z,4.30
2018-05-14T14:27:42.713Z,4.85
2018-05-14T14:30:11.299Z,4.97
2018-05-14T14:32:38.703Z,5.57
2018-05-14T14:35:06.124Z,4.90
2018-05-14T14:37:33.528Z,5.43
2018-05-14T14:40:03.668Z,4.78
2018-05-14T14:42:31.084Z,5.20
2018-05-14T14:44:58.480Z,5.82
2018-05-14T14:47:25.903Z,5.20
2018-05-14T14:49:53.307Z,5.68
2018-05-14T14:52:20.864Z,5.20
2018-05-14T14:54:48.279Z,4.82
2018-05-14T14:57:15.809Z,5.20
2018-05-14T14:59:43.237Z,5.28
2018-05-14T15:05:01.213Z,5.40
2018-05-14T15:07:28.786Z,4.55
2018-05-14T15:09:56.290Z,4.85
2018-05-14T15:12:23.777Z,4.87
2018-05-14T15:14:51.177Z,5.28
2018-05-14T15:17:18.638Z,4.57
2018-05-14T15:19:46.056Z,5.00
2018-05-14T15:22:13.464Z,5.15
2018-05-14T15:24:40.879Z,4.93
2018-05-14T15:27:08.284Z,5.03
2018-05-14T15:29:35.695Z,5.20
2018-05-14T15:32:03.119Z,5.40
2018-05-14T15:34:30.626Z,4.90
2018-05-14T15:36:58.075Z,4.68
2018-05-14T15:39:25.535Z,4.75
2018-05-14T15:41:52.920Z,4.68
2018-05-14T15:44:20.339Z,5.12
2018-05-14T15:46:47.748Z,5.18
2018-05-14T15:49:15.204Z,5.57
2018-05-14T15:51:42.852Z,4.93
2018-05-14T15:54:10.313Z,5.32
2018-05-14T15:56:37.727Z,4.90
2018-05-14T15:59:05.213Z,5.53
2018-05-14T16:01:32.678Z,5.18
2018-05-14T16:04:00.420Z,4.80
2018-05-14T16:06:27.876Z,4.90
2018-05-14T16:08:55.396Z,5.50
2018-05-14T16:11:22.817Z,4.70
2018-05-14T16:13:50.465Z,5.43
2018-05-14T16:16:17.882Z,5.10
2018-05-14T16:18:45.499Z,4.60
2018-05-14T16:21:13.162Z,4.70
2018-05-14T16:23:40.578Z,4.75
2018-05-14T16:26:08.169Z,4.68
2018-05-14T16:28:35.689Z,4.82
2018-05-14T16:31:03.128Z,4.32
2018-05-14T16:33:30.527Z,4.45
2018-05-14T16:35:59.051Z,4.78
2018-05-14T16:38:26.535Z,4.95
2018-05-14T16:40:54.095Z,5.28
2018-05-14T16:43:21.492Z,4.80
2018-05-14T16:45:48.897Z,4.75
2018-05-14T16:48:16.333Z,5.05
2018-05-14T16:50:43.752Z,5.22
2018-05-14T16:53:11.177Z,5.15
2018-05-14T16:55:38.602Z,4.90
2018-05-14T16:58:06.064Z,4.90
2018-05-14T17:00:33.478Z,4.43
2018-05-14T17:03:01.092Z,4.90
2018-05-14T17:05:28.692Z,4.57
2018-05-14T17:07:56.159Z,4.70
2018-05-14T17:10:23.616Z,4.32
2018-05-14T17:12:50.993Z,4.78
2018-05-14T17:15:18.413Z,5.22
2018-05-14T17:17:45.844Z,4.30
2018-05-14T17:20:13.268Z,5.00
2018-05-14T17:22:40.672Z,5.20
2018-05-14T17:25:08.096Z,4.50
2018-05-14T17:27:35.499Z,4.80
2018-05-14T17:30:03.128Z,4.50
2018-05-14T17:32:30.532Z,4.10
2018-05-14T17:34:57.940Z,5.32
2018-05-14T17:37:25.384Z,4.80
2018-05-14T18:22:21.090Z,4.35
2018-05-14T18:24:51.375Z,4.70
2018-05-14T18:27:38.635Z,4.32
2018-05-14T18:30:11.616Z,4.22
2018-05-14T18:32:40.053Z,4.80
2018-05-14T18:35:13.056Z,5.28
2018-05-14T18:37:40.548Z,5.25
2018-05-14T18:40:07.986Z,4.45
2018-05-14T18:42:36.178Z,4.37
2018-05-14T18:45:03.584Z,4.97
2018-05-14T18:47:31.017Z,4.72
2018-05-14T18:49:58.470Z,5.22
2018-05-14T18:52:25.878Z,4.60
2018-05-14T18:54:53.440Z,5.07
2018-05-14T18:57:20.860Z,4.40
2018-05-14T18:59:48.267Z,5.87
2018-05-14T19:02:15.684Z,4.37
2018-05-14T19:04:43.197Z,4.93
2018-05-14T19:07:10.623Z,4.28
2018-05-14T19:09:38.073Z,4.40
2018-05-14T19:12:05.471Z,4.95
2018-05-14T19:14:32.896Z,5.47
2018-05-14T19:17:05.830Z,4.97
2018-05-14T19:19:33.331Z,4.75
2018-05-14T19:22:00.669Z,3.97
2018-05-14T19:24:28.103Z,4.03
2018-05-14T19:26:55.568Z,4.55
2018-05-14T19:29:34.163Z,4.30
2018-05-14T19:32:01.596Z,4.28
2018-05-14T19:34:34.561Z,4.85
2018-05-14T19:37:01.996Z,4.65
2018-05-14T19:39:35.022Z,4.40
2018-05-14T19:42:02.447Z,4.57
2018-05-14T19:44:29.856Z,5.70
2018-05-14T19:46:57.343Z,4.60
2018-05-14T19:49:24.907Z,5.60
2018-05-14T19:51:52.251Z,4.47
2018-05-14T19:54:19.694Z,4.20
2018-05-14T19:56:47.111Z,4.30
2018-05-14T19:59:14.524Z,4.63
2018-05-14T20:01:41.958Z,4.50
2018-05-14T20:04:09.791Z,4.20
2018-05-14T20:06:37.232Z,4.30
2018-05-14T20:09:05.229Z,4.90
2018-05-14T20:11:32.656Z,4.10
2018-05-14T20:14:00.156Z,5.00
2018-05-14T20:19:03.711Z,4.53
2018-05-14T20:21:31.113Z,4.80
2018-05-14T20:23:58.516Z,4.83
2018-05-14T20:26:25.929Z,4.13
2018-05-14T20:28:53.331Z,5.10
2018-05-14T20:31:20.780Z,4.77
2018-05-14T20:33:48.188Z,4.87
2018-05-14T20:36:15.617Z,4.47
2018-05-14T20:38:43.016Z,4.43
2018-05-14T20:41:10.425Z,4.20
2018-05-14T20:43:37.854Z,4.63
2018-05-14T20:46:05.257Z,4.60
2018-05-14T20:48:33.070Z,5.10
2018-05-14T20:51:00.471Z,5.27
2018-05-14T20:53:27.905Z,4.50
2018-05-14T20:55:55.760Z,4.37
2018-05-14T20:58:23.168Z,4.30
2018-05-14T21:00:50.576Z,4.97
2018-05-14T21:03:18.060Z,5.00
2018-05-14T21:05:45.412Z,4.20
2018-05-14T21:08:12.840Z,4.60
2018-05-14T21:10:40.347Z,4.43
2018-05-14T21:13:07.817Z,4.60
2018-05-14T21:15:35.259Z,5.43
2018-05-14T21:18:02.684Z,4.90
2018-05-14T21:20:30.084Z,5.20
2018-05-14T21:22:57.519Z,4.70
2018-05-14T21:25:24.916Z,5.13
2018-05-14T21:27:52.332Z,5.37
2018-05-14T21:30:19.931Z,4.87
2018-05-14T21:32:47.331Z,5.00
2018-05-14T21:35:14.804Z,4.60
2018-05-14T21:37:42.241Z,5.47
2018-05-14T21:40:09.677Z,4.90
2018-05-14T21:42:37.171Z,4.40
2018-05-14T21:45:04.519Z,5.13
2018-05-14T21:47:31.924Z,5.13
2018-05-14T21:49:59.421Z,4.73
2018-05-14T21:52:26.863Z,4.97
2018-05-14T21:54:54.265Z,4.97
2018-05-14T21:57:21.720Z,4.70
2018-05-14T21:59:49.120Z,4.50
2018-05-14T22:02:16.535Z,4.57
2018-05-14T22:04:43.952Z,4.30
2018-05-14T22:07:11.371Z,4.17
2018-05-14T22:09:38.808Z,5.13
2018-05-14T22:12:06.204Z,4.30
2018-05-14T22:14:33.620Z,4.47
2018-05-14T22:17:01.032Z,4.30
2018-05-14T22:19:28.456Z,4.77
2018-05-14T22:21:55.855Z,4.73
2018-05-14T22:24:23.286Z,5.10
2018-05-14T22:26:50.680Z,5.00
2018-05-14T22:29:18.107Z,4.47
2018-05-14T22:31:45.530Z,4.93
2018-05-14T22:34:12.933Z,5.33
2018-05-14T22:36:40.360Z,4.77
2018-05-14T22:39:07.806Z,5.00
2018-05-14T22:41:35.201Z,4.70
2018-05-14T22:44:03.179Z,5.87
2018-05-14T22:46:30.608Z,5.20
2018-05-14T22:48:58.042Z,5.00
2018-05-14T22:51:25.513Z,4.87
2018-05-14T22:53:52.921Z,5.23
2018-05-14T22:56:20.658Z,5.20
2018-05-14T22:58:48.073Z,4.70
2018-05-14T23:01:15.484Z,4.87
2018-05-14T23:03:42.912Z,4.83
2018-05-14T23:11:51.798Z,5.10
2018-05-14T23:17:09.485Z,4.77
2018-05-14T23:19:36.886Z,5.20
2018-05-14T23:22:04.289Z,5.40
2018-05-14T23:24:31.710Z,5.03
2018-05-14T23:26:59.107Z,5.60
2018-05-14T23:29:26.857Z,4.23
2018-05-14T23:31:54.265Z,5.13
2018-05-14T23:34:21.676Z,5.07
2018-05-14T23:36:49.263Z,5.00
2018-05-14T23:39:16.684Z,5.20
2018-05-14T23:41:44.088Z,5.60
2018-05-14T23:44:11.503Z,4.67
2018-05-14T23:46:38.915Z,4.90
2018-05-14T23:49:06.332Z,4.97
2018-05-14T23:51:33.744Z,4.63
2018-05-14T23:54:01.169Z,4.33
2018-05-14T23:56:28.588Z,4.03
2018-05-14T23:58:55.997Z,4.30
